createdAt,value
2022-08-28T00:00:18.849Z,98224.72
2022-08-28T00:02:49.405Z,98224.72
2022-08-28T00:05:21.911Z,98234.28
2022-08-28T00:07:54.301Z,98232.34
2022-08-28T00:10:25.794Z,98235.09
2022-08-28T00:12:57.710Z,98239.09
2022-08-28T00:15:30.406Z,98239.09
2022-08-28T00:18:00.619Z,98243.53
2022-08-28T00:20:31.624Z,98242.41
2022-08-28T00:23:06.022Z,98244.38
2022-08-28T00:25:37.655Z,98251.84
2022-08-28T00:28:09.222Z,98252.59
2022-08-28T00:30:43.671Z,98242.41
2022-08-28T00:33:17.352Z,98237.19
2022-08-28T00:35:47.249Z,98242.41
2022-08-28T00:38:21.791Z,98246.75
2022-08-28T00:40:54.016Z,98245.63
2022-08-28T00:43:29.611Z,98250.03
2022-08-28T00:45:59.397Z,98246.28
2022-08-28T00:48:29.116Z,98243.97
2022-08-28T00:51:12.512Z,98240.41
2022-08-28T00:53:44.864Z,98240.84
2022-08-28T00:56:17.310Z,98238.06
2022-08-28T00:58:49.530Z,98239.72
2022-08-28T01:01:19.491Z,98237.38
2022-08-28T01:03:49.245Z,98230.28
2022-08-28T01:06:20.313Z,98233.81
2022-08-28T01:08:53.919Z,98226.47
2022-08-28T01:11:24.281Z,98230.53
2022-08-28T01:13:57.061Z,98234.78
2022-08-28T01:16:34.476Z,98233.81
2022-08-28T01:19:05.277Z,98231.06
2022-08-28T01:21:43.024Z,98238.34
2022-08-28T01:24:19.072Z,98235.97
2022-08-28T01:26:48.860Z,98244.13
2022-08-28T01:29:19.035Z,98246.03
2022-08-28T01:31:48.979Z,98237.81
2022-08-28T01:34:19.002Z,98243.25
2022-08-28T01:36:48.947Z,98244.03
2022-08-28T01:39:25.170Z,98240.91
2022-08-28T01:41:59.646Z,98232.19
2022-08-28T01:44:30.767Z,98228.03
2022-08-28T01:47:01.294Z,98233.41
2022-08-28T01:49:31.024Z,98232.69
2022-08-28T01:52:01.091Z,98239.47
2022-08-28T01:54:35.681Z,98235.09
2022-08-28T01:57:05.893Z,98243.00
2022-08-28T01:59:36.413Z,98233.81
2022-08-28T02:02:06.831Z,98240.31
2022-08-28T02:04:36.612Z,98230.78
2022-08-28T02:07:06.672Z,98241.72
2022-08-28T02:09:38.982Z,98240.41
2022-08-28T02:12:08.954Z,98246.03
2022-08-28T02:14:38.834Z,98247.31
2022-08-28T02:17:08.582Z,98244.03
2022-08-28T02:19:38.266Z,98244.03
2022-08-28T02:22:09.523Z,98248.53
2022-08-28T02:24:41.938Z,98239.47
2022-08-28T02:27:11.630Z,98241.88
2022-08-28T02:29:41.355Z,98239.38
2022-08-28T02:32:11.034Z,98243.34
2022-08-28T02:34:42.293Z,98241.72
2022-08-28T02:37:13.423Z,98246.53
2022-08-28T02:39:45.789Z,98252.97
2022-08-28T02:42:15.536Z,98250.03
2022-08-28T02:44:45.963Z,98246.03
2022-08-28T02:47:15.979Z,98245.31
2022-08-28T02:49:45.798Z,98242.91
2022-08-28T02:52:15.533Z,98244.53
2022-08-28T02:54:48.031Z,98247.06
2022-08-28T02:57:17.774Z,98241.00
2022-08-28T02:59:47.962Z,98246.00
2022-08-28T03:02:17.737Z,98241.66
2022-08-28T03:04:48.539Z,98241.16
2022-08-28T03:07:19.532Z,98240.72
2022-08-28T03:09:51.909Z,98240.22
2022-08-28T03:12:24.241Z,98247.41
2022-08-28T03:14:54.289Z,98245.50
2022-08-28T03:17:24.641Z,98239.09
2022-08-28T03:19:54.768Z,98243.59
2022-08-28T03:22:44.724Z,98244.63
2022-08-28T03:25:14.457Z,98243.78
2022-08-28T03:27:44.186Z,98238.13
2022-08-28T03:30:17.253Z,98238.06
2022-08-28T03:32:47.170Z,98235.72
2022-08-28T03:35:17.236Z,98240.91
2022-08-28T03:37:47.119Z,98236.22
2022-08-28T03:40:20.575Z,98229.56
2022-08-28T03:42:53.230Z,98233.66
2022-08-28T03:45:24.186Z,98237.09
2022-08-28T03:47:55.497Z,98251.06
2022-08-28T03:50:26.178Z,98241.88
2022-08-28T03:52:59.424Z,98249.47
2022-08-28T03:55:31.784Z,98250.78
2022-08-28T03:58:02.202Z,98250.44
2022-08-28T04:00:31.931Z,98252.06
2022-08-28T04:03:01.682Z,98259.16
2022-08-28T04:05:31.591Z,98256.25
2022-08-28T04:08:01.256Z,98260.13
2022-08-28T04:10:33.640Z,98255.81
2022-08-28T04:13:03.562Z,98255.22
2022-08-28T04:15:33.359Z,98252.34
2022-08-28T04:18:03.864Z,98249.66
2022-08-28T04:20:33.790Z,98250.41
2022-08-28T04:23:04.256Z,98256.22
2022-08-28T04:25:36.940Z,98259.53
2022-08-28T04:28:06.930Z,98255.88
2022-08-28T04:30:36.602Z,98250.78
2022-08-28T04:33:06.356Z,98256.41
2022-08-28T04:35:36.182Z,98258.84
2022-08-28T04:38:06.357Z,98262.81
2022-08-28T04:40:42.172Z,98257.97
2022-08-28T04:43:12.488Z,98259.88
2022-08-28T04:45:43.436Z,98256.34
2022-08-28T04:48:14.663Z,98263.44
2022-08-28T04:50:45.564Z,98260.22
2022-08-28T04:53:15.781Z,98262.34
2022-08-28T04:55:54.893Z,98258.28
2022-08-28T04:58:25.485Z,98266.09
2022-08-28T05:00:57.118Z,98267.16
2022-08-28T05:03:26.924Z,98257.47
2022-08-28T05:05:57.336Z,98265.50
2022-08-28T05:08:28.498Z,98270.00
2022-08-28T05:11:01.598Z,98270.59
2022-08-28T05:13:31.398Z,98273.72
2022-08-28T05:16:01.135Z,98278.41
2022-08-28T05:18:30.846Z,98277.19
2022-08-28T05:21:02.045Z,98277.13
2022-08-28T05:23:32.404Z,98284.66
2022-08-28T05:26:04.916Z,98281.53
2022-08-28T05:28:34.594Z,98286.22
2022-08-28T05:31:11.753Z,98289.75
2022-08-28T05:33:42.150Z,98287.75
2022-08-28T05:36:13.343Z,98285.00
2022-08-28T05:38:44.368Z,98289.34
2022-08-28T05:41:21.717Z,98290.88
2022-08-28T05:43:53.084Z,98282.84
2022-08-28T05:46:23.734Z,98288.38
2022-08-28T05:48:53.570Z,98288.13
2022-08-28T05:51:26.695Z,98293.91
2022-08-28T05:53:58.384Z,98293.66
2022-08-28T05:56:34.178Z,98294.00
2022-08-28T05:59:05.925Z,98296.28
2022-08-28T06:01:39.101Z,98300.25
2022-08-28T06:04:11.000Z,98299.41
2022-08-28T06:06:42.093Z,98294.53
2022-08-28T06:09:15.637Z,98307.16
2022-08-28T06:11:48.996Z,98309.16
2022-08-28T06:14:22.244Z,98302.50
2022-08-28T06:16:56.164Z,98307.72
2022-08-28T06:19:28.374Z,98312.44
2022-08-28T06:22:00.039Z,98313.94
2022-08-28T06:24:30.677Z,98314.28
2022-08-28T06:27:03.231Z,98311.06
2022-08-28T06:29:33.085Z,98311.16
2022-08-28T06:32:05.073Z,98309.53
2022-08-28T06:34:34.864Z,98308.91
2022-08-28T06:37:04.651Z,98317.59
2022-08-28T06:39:34.338Z,98317.84
2022-08-28T06:42:07.343Z,98318.97
2022-08-28T06:44:37.623Z,98317.75
2022-08-28T06:47:07.653Z,98322.78
2022-08-28T06:49:37.346Z,98329.47
2022-08-28T06:52:06.999Z,98329.56
2022-08-28T06:54:36.656Z,98332.25
2022-08-28T06:57:10.509Z,98328.41
2022-08-28T06:59:40.215Z,98330.41
2022-08-28T07:02:10.276Z,98334.84
2022-08-28T07:04:40.358Z,98335.47
2022-08-28T07:07:11.376Z,98336.50
2022-08-28T07:10:01.059Z,98333.97
2022-08-28T07:12:33.371Z,98343.63
2022-08-28T07:15:04.362Z,98343.09
2022-08-28T07:17:34.459Z,98346.66
2022-08-28T07:20:04.278Z,98348.38
2022-08-28T07:22:33.951Z,98350.19
2022-08-28T07:25:04.789Z,98361.38
2022-08-28T07:27:37.336Z,98358.34
2022-08-28T07:30:10.258Z,98353.41
2022-08-28T07:32:39.912Z,98358.00
2022-08-28T07:35:10.635Z,98360.06
2022-08-28T07:37:41.012Z,98359.38
2022-08-28T07:40:12.505Z,98353.09
2022-08-28T07:42:57.225Z,98360.47
2022-08-28T07:45:27.101Z,98367.84
2022-08-28T07:47:57.673Z,98366.47
2022-08-28T07:50:27.455Z,98371.00
2022-08-28T07:52:57.837Z,98372.22
2022-08-28T07:55:29.865Z,98377.06
2022-08-28T07:58:02.396Z,98371.88
2022-08-28T08:00:32.095Z,98376.53
2022-08-28T08:03:01.801Z,98376.53
2022-08-28T08:05:31.770Z,98380.69
2022-08-28T08:08:01.546Z,98389.88
2022-08-28T08:10:34.291Z,98378.69
2022-08-28T08:13:07.104Z,98376.84
2022-08-28T08:15:37.609Z,98384.03
2022-08-28T08:18:07.614Z,98380.59
2022-08-28T08:20:37.312Z,98388.84
2022-08-28T08:23:07.053Z,98397.03
2022-08-28T08:25:36.827Z,98402.81
2022-08-28T08:28:09.538Z,98401.53
2022-08-28T08:30:39.446Z,98396.41
2022-08-28T08:33:09.159Z,98405.00
2022-08-28T08:35:39.620Z,98401.00
2022-08-28T08:38:10.227Z,98406.03
2022-08-28T08:40:40.100Z,98406.06
2022-08-28T08:43:13.229Z,98406.75
2022-08-28T08:45:44.721Z,98405.63
2022-08-28T08:48:21.031Z,98411.31
2022-08-28T08:50:51.261Z,98403.75
2022-08-28T08:53:30.865Z,98405.75
2022-08-28T08:56:03.190Z,98402.59
2022-08-28T08:58:39.602Z,98412.59
2022-08-28T09:01:20.590Z,98413.47
2022-08-28T09:03:59.961Z,98417.28
2022-08-28T09:06:36.848Z,98415.16
2022-08-28T09:09:10.392Z,98413.06
2022-08-28T09:11:56.579Z,98419.28
2022-08-28T09:14:39.325Z,98420.53
2022-08-28T09:17:10.189Z,98420.22
2022-08-28T09:19:39.954Z,98420.34
2022-08-28T09:22:09.682Z,98415.66
2022-08-28T09:24:41.962Z,98422.34
2022-08-28T09:27:24.549Z,98424.34
2022-08-28T09:30:02.530Z,98417.34
2022-08-28T09:32:41.619Z,98426.47
2022-08-28T09:35:19.111Z,98428.69
2022-08-28T09:37:48.820Z,98429.91
2022-08-28T09:40:23.309Z,98427.69
2022-08-28T09:43:20.304Z,98429.19
2022-08-28T09:45:59.997Z,98425.88
2022-08-28T09:48:36.507Z,98425.97
2022-08-28T09:51:09.182Z,98423.50
2022-08-28T09:53:44.622Z,98426.78
2022-08-28T09:56:20.742Z,98426.84
2022-08-28T09:58:54.772Z,98425.91
2022-08-28T10:01:40.339Z,98429.63
2022-08-28T10:04:37.531Z,98426.50
2022-08-28T10:07:11.006Z,98426.28
2022-08-28T10:09:49.976Z,98421.03
2022-08-28T10:12:34.365Z,98425.69
2022-08-28T10:15:11.534Z,98421.75
2022-08-28T10:17:54.277Z,98424.25
2022-08-28T10:20:47.785Z,98427.88
2022-08-28T10:23:29.936Z,98428.66
2022-08-28T10:26:10.800Z,98419.72
2022-08-28T10:28:49.923Z,98423.50
2022-08-28T10:31:25.771Z,98433.44
2022-08-28T10:34:12.468Z,98425.75
2022-08-28T10:36:42.154Z,98424.09
2022-08-28T10:39:24.948Z,98426.44
2022-08-28T10:42:00.865Z,98424.09
2022-08-28T10:44:39.375Z,98421.75
2022-08-28T10:47:10.223Z,98416.09
2022-08-28T10:49:44.489Z,98415.06
2022-08-28T10:52:18.390Z,98417.13
2022-08-28T10:54:56.038Z,98419.34
2022-08-28T10:57:39.549Z,98415.59
2022-08-28T11:00:15.219Z,98414.94
2022-08-28T11:02:51.349Z,98419.88
2022-08-28T11:05:27.814Z,98416.34
2022-08-28T11:07:59.906Z,98418.59
2022-08-28T11:10:50.169Z,98415.34
2022-08-28T11:13:42.603Z,98418.78
2022-08-28T11:16:21.299Z,98423.75
2022-08-28T11:19:20.810Z,98425.97
2022-08-28T11:21:57.340Z,98420.03
2022-08-28T11:24:44.151Z,98421.78
2022-08-28T11:27:29.821Z,98421.03
2022-08-28T11:30:19.050Z,98423.97
2022-08-28T11:33:07.155Z,98412.91
2022-08-28T11:35:51.260Z,98414.72
2022-08-28T11:38:51.003Z,98420.41
2022-08-28T11:41:27.429Z,98411.22
2022-08-28T11:44:28.399Z,98421.19
2022-08-28T11:47:18.801Z,98420.25
2022-08-28T11:49:48.792Z,98407.47
2022-08-28T11:52:35.851Z,98418.28
2022-08-28T11:55:20.170Z,98408.47
2022-08-28T12:00:51.998Z,98416.03
2022-08-28T12:03:31.470Z,98418.56
2022-08-28T12:06:02.558Z,98413.56
2022-08-28T12:09:11.113Z,98410.63
2022-08-28T12:11:54.163Z,98414.44
2022-08-28T12:15:07.941Z,98416.19
2022-08-28T12:17:52.825Z,98410.44
2022-08-28T12:20:36.853Z,98407.41
2022-08-28T12:23:27.895Z,98411.13
2022-08-28T12:26:04.858Z,98408.94
2022-08-28T12:28:40.136Z,98405.28
2022-08-28T12:31:49.610Z,98403.66
2022-08-28T12:34:31.198Z,98402.41
2022-08-28T12:37:03.615Z,98408.81
2022-08-28T12:39:35.302Z,98403.81
2022-08-28T12:42:05.565Z,98401.44
2022-08-28T12:44:36.059Z,98405.13
2022-08-28T12:47:05.817Z,98407.13
2022-08-28T12:49:41.026Z,98400.63
2022-08-28T12:52:16.569Z,98403.59
2022-08-28T12:54:47.534Z,98395.75
2022-08-28T12:57:19.224Z,98400.84
2022-08-28T12:59:50.956Z,98398.88
2022-08-28T13:02:29.015Z,98387.72
2022-08-28T13:05:05.077Z,98382.22
2022-08-28T13:07:41.028Z,98380.50
2022-08-28T13:10:24.115Z,98385.09
2022-08-28T13:12:59.696Z,98384.56
2022-08-28T13:15:48.125Z,98391.47
2022-08-28T13:18:51.462Z,98385.09
2022-08-28T13:22:00.443Z,98384.72
2022-08-28T13:24:40.419Z,98388.78
2022-08-28T13:27:19.676Z,98388.78
2022-08-28T13:30:00.993Z,98382.16
2022-08-28T13:32:32.871Z,98387.25
2022-08-28T13:35:16.968Z,98386.66
2022-08-28T13:37:52.394Z,98377.22
2022-08-28T13:40:55.788Z,98381.34
2022-08-28T13:43:15.673Z,98382.00
2022-08-28T13:45:48.761Z,98379.13
2022-08-28T13:48:20.552Z,98371.22
2022-08-28T13:50:52.625Z,98371.25
2022-08-28T13:53:25.963Z,98363.75
2022-08-28T13:55:55.911Z,98369.09
2022-08-28T13:58:26.484Z,98367.03
2022-08-28T14:00:57.159Z,98360.03
2022-08-28T14:03:36.530Z,98356.66
2022-08-28T14:06:08.014Z,98358.44
2022-08-28T14:08:40.511Z,98362.56
2022-08-28T14:11:12.725Z,98361.38
2022-08-28T14:13:47.231Z,98362.03
2022-08-28T14:16:25.712Z,98350.28
2022-08-28T14:18:56.192Z,98345.47
2022-08-28T14:21:27.003Z,98348.72
2022-08-28T14:23:59.300Z,98345.88
2022-08-28T14:26:29.616Z,98345.19
2022-08-28T14:29:01.782Z,98346.84
2022-08-28T14:31:32.196Z,98339.41
2022-08-28T14:34:02.349Z,98339.72
2022-08-28T14:36:33.273Z,98340.91
2022-08-28T14:39:08.405Z,98336.94
2022-08-28T14:41:38.650Z,98337.03
2022-08-28T14:44:09.302Z,98327.72
2022-08-28T14:46:40.338Z,98331.31
2022-08-28T14:49:13.407Z,98339.44
2022-08-28T14:51:45.316Z,98330.16
2022-08-28T14:54:20.221Z,98329.25
2022-08-28T14:56:50.514Z,98330.63
2022-08-28T14:59:24.426Z,98325.81
2022-08-28T15:01:55.682Z,98338.44
2022-08-28T15:04:26.992Z,98324.19
2022-08-28T15:06:59.749Z,98334.84
2022-08-28T15:09:32.217Z,98324.25
2022-08-28T15:12:01.906Z,98328.81
2022-08-28T15:14:31.634Z,98323.91
2022-08-28T15:17:01.376Z,98320.97
2022-08-28T15:19:31.185Z,98318.25
2022-08-28T15:22:02.245Z,98318.69
2022-08-28T15:24:36.410Z,98320.41
2022-08-28T15:27:07.116Z,98325.66
2022-08-28T15:29:36.889Z,98327.06
2022-08-28T15:32:07.250Z,98329.75
2022-08-28T15:34:36.964Z,98321.72
2022-08-28T15:37:09.741Z,98319.25
2022-08-28T15:39:58.192Z,98318.66
2022-08-28T15:42:28.207Z,98323.00
2022-08-28T15:44:59.660Z,98324.59
2022-08-28T15:47:29.357Z,98322.13
2022-08-28T15:49:59.288Z,98312.66
2022-08-28T15:52:28.996Z,98310.94
2022-08-28T15:55:02.050Z,98311.91
2022-08-28T15:57:31.812Z,98317.31
2022-08-28T16:00:01.482Z,98313.28
2022-08-28T16:02:31.180Z,98318.25
2022-08-28T16:05:01.144Z,98314.53
2022-08-28T16:07:30.875Z,98317.78
2022-08-28T16:10:03.258Z,98316.09
2022-08-28T16:12:33.055Z,98313.28
2022-08-28T16:15:02.816Z,98316.09
2022-08-28T16:17:32.472Z,98314.09
2022-08-28T16:20:03.130Z,98317.78
2022-08-28T16:22:33.171Z,98314.41
2022-08-28T16:25:05.515Z,98322.47
2022-08-28T16:27:35.267Z,98318.13
2022-08-28T16:30:06.567Z,98314.56
2022-08-28T16:32:46.857Z,98313.75
2022-08-28T16:35:17.981Z,98318.09
2022-08-28T16:37:47.732Z,98321.81
2022-08-28T16:40:20.256Z,98318.41
2022-08-28T16:42:51.573Z,98317.16
2022-08-28T16:45:22.471Z,98319.81
2022-08-28T16:47:52.540Z,98319.66
2022-08-28T16:50:22.573Z,98324.16
2022-08-28T16:52:52.227Z,98317.16
2022-08-28T16:55:25.051Z,98321.19
2022-08-28T16:57:54.930Z,98320.28
2022-08-28T17:00:25.887Z,98324.75
2022-08-28T17:02:55.826Z,98327.22
2022-08-28T17:05:26.262Z,98331.44
2022-08-28T17:07:56.036Z,98332.94
2022-08-28T17:10:28.710Z,98335.78
2022-08-28T17:12:58.416Z,98324.59
2022-08-28T17:15:28.066Z,98327.41
2022-08-28T17:17:58.871Z,98333.09
2022-08-28T17:20:41.205Z,98332.94
2022-08-28T17:23:10.951Z,98332.66
2022-08-28T17:25:43.397Z,98338.22
2022-08-28T17:28:13.583Z,98333.25
2022-08-28T17:30:43.439Z,98332.00
2022-08-28T17:33:13.528Z,98337.69
2022-08-28T17:35:43.260Z,98345.53
2022-08-28T17:38:13.103Z,98348.78
2022-08-28T17:40:45.609Z,98347.69
2022-08-28T17:43:15.289Z,98351.72
2022-08-28T17:45:45.010Z,98352.63
2022-08-28T17:48:17.088Z,98357.84
2022-08-28T17:50:47.108Z,98358.47
2022-08-28T17:53:16.743Z,98363.19
2022-08-28T17:55:49.413Z,98361.44
2022-08-28T17:58:19.094Z,98361.41
2022-08-28T18:00:50.550Z,98353.28
2022-08-28T18:03:20.216Z,98362.53
2022-08-28T18:05:50.052Z,98357.25
2022-08-28T18:08:19.733Z,98365.53
2022-08-28T18:10:52.041Z,98367.03
2022-08-28T18:13:22.255Z,98373.31
2022-08-28T18:15:56.547Z,98370.34
2022-08-28T18:18:26.983Z,98367.47
2022-08-28T18:21:06.105Z,98374.72
2022-08-28T18:23:35.831Z,98380.44
2022-08-28T18:26:08.353Z,98385.69
2022-08-28T18:28:39.857Z,98390.03
2022-08-28T18:31:10.248Z,98387.59
2022-08-28T18:33:40.896Z,98382.56
2022-08-28T18:36:11.863Z,98391.50
2022-08-28T18:38:42.061Z,98396.72
2022-08-28T18:41:14.873Z,98399.63
2022-08-28T18:43:44.833Z,98410.88
2022-08-28T18:46:14.798Z,98406.78
2022-08-28T18:48:45.600Z,98407.44
2022-08-28T18:51:15.580Z,98413.00
2022-08-28T18:53:51.545Z,98410.34
2022-08-28T18:56:23.851Z,98415.13
2022-08-28T18:58:57.979Z,98424.03
2022-08-28T19:01:28.689Z,98427.34
2022-08-28T19:03:58.917Z,98433.94
2022-08-28T19:06:28.857Z,98432.69
2022-08-28T19:08:58.725Z,98442.28
2022-08-28T19:11:31.579Z,98442.50
2022-08-28T19:14:03.902Z,98446.50
2022-08-28T19:16:35.411Z,98455.50
2022-08-28T19:19:06.420Z,98455.69
2022-08-28T19:21:38.699Z,98453.34
2022-08-28T19:24:08.954Z,98453.44
2022-08-28T19:26:41.463Z,98453.19
2022-08-28T19:29:11.187Z,98458.69
2022-08-28T19:31:41.226Z,98457.66
2022-08-28T19:34:12.104Z,98461.00
2022-08-28T19:36:42.915Z,98461.97
2022-08-28T19:39:12.959Z,98462.06
2022-08-28T19:41:46.024Z,98463.81
2022-08-28T19:44:15.800Z,98463.94
2022-08-28T19:46:45.498Z,98462.81
2022-08-28T19:49:15.221Z,98462.91
2022-08-28T19:51:45.337Z,98461.00
2022-08-28T19:54:15.991Z,98469.13
2022-08-28T19:56:48.285Z,98469.97
2022-08-28T19:59:17.985Z,98471.72
2022-08-28T20:01:47.761Z,98470.06
2022-08-28T20:04:17.900Z,98472.25
2022-08-28T20:06:48.616Z,98472.88
2022-08-28T20:09:19.250Z,98483.53
2022-08-28T20:11:52.701Z,98476.09
2022-08-28T20:14:23.364Z,98475.56
2022-08-28T20:16:54.645Z,98483.00
2022-08-28T20:19:25.059Z,98483.00
2022-08-28T20:21:54.850Z,98489.78
2022-08-28T20:24:26.228Z,98478.19
2022-08-28T20:26:58.674Z,98480.34
2022-08-28T20:29:28.490Z,98481.31
2022-08-28T20:31:58.263Z,98487.19
2022-08-28T20:34:27.964Z,98484.16
2022-08-28T20:36:57.647Z,98483.47
2022-08-28T20:39:28.366Z,98483.47
2022-08-28T20:42:00.842Z,98498.41
2022-08-28T20:44:30.614Z,98487.47
2022-08-28T20:47:00.319Z,98500.06
2022-08-28T20:49:30.050Z,98497.44
2022-08-28T20:52:01.310Z,98496.84
2022-08-28T20:54:33.386Z,98493.97
2022-08-28T20:57:08.987Z,98505.38
2022-08-28T20:59:40.702Z,98497.69
2022-08-28T21:02:12.963Z,98504.56
2022-08-28T21:04:44.536Z,98506.25
2022-08-28T21:07:14.962Z,98491.19
2022-08-28T21:10:04.944Z,98502.78
2022-08-28T21:12:37.423Z,98508.00
2022-08-28T21:15:08.626Z,98501.94
2022-08-28T21:17:38.326Z,98507.13
2022-08-28T21:20:11.590Z,98507.63
2022-08-28T21:22:42.395Z,98506.44
2022-08-28T21:25:13.868Z,98515.09
2022-08-28T21:27:47.235Z,98509.72
2022-08-28T21:30:20.256Z,98516.91
2022-08-28T21:32:51.644Z,98509.09
2022-08-28T21:35:23.042Z,98511.56
2022-08-28T21:37:52.724Z,98513.00
2022-08-28T21:40:22.801Z,98511.34
2022-08-28T21:42:55.154Z,98503.25
2022-08-28T21:45:25.050Z,98511.72
2022-08-28T21:47:54.870Z,98513.56
2022-08-28T21:50:24.590Z,98521.84
2022-08-28T21:52:54.292Z,98512.56
2022-08-28T21:55:25.066Z,98520.47
2022-08-28T21:57:57.407Z,98515.97
2022-08-28T22:00:27.241Z,98517.22
2022-08-28T22:02:57.030Z,98520.69
2022-08-28T22:05:28.493Z,98517.13
2022-08-28T22:07:58.450Z,98525.16
2022-08-28T22:10:28.362Z,98517.84
2022-08-28T22:13:00.616Z,98518.28
2022-08-28T22:15:31.212Z,98521.91
2022-08-28T22:18:01.212Z,98517.16
2022-08-28T22:20:31.090Z,98517.16
2022-08-28T22:23:10.446Z,98519.50
2022-08-28T22:25:42.283Z,98517.63
2022-08-28T22:28:14.801Z,98522.97
2022-08-28T22:30:44.630Z,98525.09
2022-08-28T22:33:14.340Z,98525.38
2022-08-28T22:35:44.064Z,98527.66
2022-08-28T22:38:14.127Z,98523.09
2022-08-28T22:40:44.113Z,98530.63
2022-08-28T22:43:17.085Z,98524.53
2022-08-28T22:45:48.790Z,98529.13
2022-08-28T22:48:20.231Z,98528.00
2022-08-28T22:50:50.926Z,98526.78
2022-08-28T22:53:20.640Z,98527.28
2022-08-28T22:55:50.311Z,98522.16
2022-08-28T22:58:22.629Z,98519.88
2022-08-28T23:00:53.281Z,98523.53
2022-08-28T23:03:23.203Z,98524.31
2022-08-28T23:05:52.988Z,98529.00
2022-08-28T23:08:22.760Z,98533.81
2022-08-28T23:10:59.214Z,98537.09
2022-08-28T23:13:33.221Z,98528.06
2022-08-28T23:16:03.776Z,98523.28
2022-08-28T23:19:03.946Z,98532.94
2022-08-28T23:21:26.240Z,98521.44
2022-08-28T23:23:56.338Z,98526.25
2022-08-28T23:26:27.211Z,98531.13
2022-08-28T23:28:59.832Z,98531.13
2022-08-28T23:31:29.684Z,98531.66
2022-08-28T23:33:59.442Z,98530.81
2022-08-28T23:36:29.147Z,98524.81
2022-08-28T23:38:59.110Z,98522.59
2022-08-28T23:41:29.533Z,98523.25
2022-08-28T23:44:07.829Z,98523.06
2022-08-28T23:46:41.338Z,98513.59
2022-08-28T23:49:11.553Z,98514.88
2022-08-28T23:51:41.692Z,98509.16
2022-08-28T23:54:12.720Z,98512.41
2022-08-28T23:56:42.476Z,98509.59
2022-08-28T23:59:14.744Z,98510.25
